Time;durP1;ratioP1;P1;durP2;ratioP2;P2;SDS_P1;SDS_P2;PMS_P1;PMS_P2;Temp;Humidity;BMP_temperature;BMP_pressure;BME280_temperature;BME280_humidity;BME280_pressure;Samples;Min_cycle;Max_cycle;Signal;HPM_P1;HPM_P2
2023/03/22 00:02:20;;;;;;;5.10;4.18;;;17.30;70.60;;;;;;5004292;28;20052;-82
2023/03/22 00:04:46;;;;;;;5.18;4.68;;;17.30;70.70;;;;;;5009850;28;20033;-82
2023/03/22 00:07:11;;;;;;;4.10;3.80;;;17.30;70.70;;;;;;5007654;28;20038;-82
2023/03/22 00:09:37;;;;;;;4.65;4.25;;;17.30;70.60;;;;;;5006549;28;20089;-83
2023/03/22 00:12:03;;;;;;;3.65;3.28;;;17.30;70.60;;;;;;5002845;28;20092;-82
2023/03/22 00:14:28;;;;;;;4.30;3.67;;;17.30;70.70;;;;;;5009108;28;20042;-83
2023/03/22 00:16:55;;;;;;;3.67;3.38;;;17.30;70.60;;;;;;5008124;28;20060;-82
2023/03/22 00:19:20;;;;;;;4.10;3.80;;;17.30;70.80;;;;;;5007503;28;20133;-83
2023/03/22 00:21:46;;;;;;;3.40;3.10;;;17.30;70.70;;;;;;5009997;28;20117;-82
2023/03/22 00:24:12;;;;;;;3.30;3.10;;;17.30;70.60;;;;;;5005690;28;20553;-82
2023/03/22 00:26:37;;;;;;;4.18;3.78;;;17.30;70.60;;;;;;5008625;28;20044;-83
2023/03/22 00:29:03;;;;;;;4.47;4.18;;;17.30;70.60;;;;;;5008888;28;20045;-82
2023/03/22 00:31:29;;;;;;;3.53;3.22;;;17.30;70.70;;;;;;5007413;28;20044;-83
2023/03/22 00:33:54;;;;;;;4.00;3.60;;;17.30;70.80;;;;;;5007823;28;20507;-82
2023/03/22 00:36:20;;;;;;;3.70;3.40;;;17.30;70.70;;;;;;5005416;28;20068;-82
2023/03/22 00:38:45;;;;;;;3.70;3.40;;;17.30;70.80;;;;;;5007184;28;20038;-83
2023/03/22 00:41:15;;;;;;;3.83;3.47;;;17.30;70.90;;;;;;5008671;28;20423;-83
2023/03/22 00:43:41;;;;;;;3.42;3.22;;;17.30;70.80;;;;;;5005282;28;20041;-83
2023/03/22 00:46:07;;;;;;;3.35;3.15;;;17.20;70.80;;;;;;5000201;28;20042;-82
2023/03/22 00:48:32;;;;;;;4.25;3.67;;;17.20;70.90;;;;;;5007027;28;20038;-83
2023/03/22 00:50:58;;;;;;;3.78;3.47;;;17.30;70.90;;;;;;5007492;28;20095;-84
2023/03/22 00:53:24;;;;;;;3.60;3.30;;;17.20;70.80;;;;;;5008197;28;20211;-83
2023/03/22 00:55:50;;;;;;;4.15;3.60;;;17.20;70.90;;;;;;5006220;28;22377;-83
2023/03/22 00:58:16;;;;;;;5.07;3.75;;;17.20;70.80;;;;;;5005696;28;20549;-81
2023/03/22 01:00:43;;;;;;;4.00;3.70;;;17.20;70.80;;;;;;5003265;28;20129;-82
2023/03/22 01:03:08;;;;;;;3.38;3.05;;;17.20;70.80;;;;;;5007229;28;20038;-82
2023/03/22 01:05:34;;;;;;;3.60;3.30;;;17.20;70.90;;;;;;5005973;28;20088;-82
2023/03/22 01:08:07;;;;;;;4.97;3.13;;;17.20;70.80;;;;;;5019851;28;20030;-78
2023/03/22 01:10:36;;;;;;;3.58;3.30;;;17.20;70.90;;;;;;5019960;28;20129;-81
2023/03/22 01:13:02;;;;;;;3.15;2.78;;;17.20;70.90;;;;;;5004402;28;20068;-82
2023/03/22 01:15:28;;;;;;;3.65;3.35;;;17.20;70.90;;;;;;5004922;28;20619;-82
2023/03/22 01:17:53;;;;;;;3.92;3.05;;;17.20;70.90;;;;;;5010164;28;20050;-82
2023/03/22 01:20:19;;;;;;;4.03;3.67;;;17.20;70.90;;;;;;5004469;28;20042;-82
2023/03/22 01:22:44;;;;;;;3.30;3.00;;;17.20;70.90;;;;;;5009285;28;20045;-82
2023/03/22 01:25:10;;;;;;;3.10;2.90;;;17.20;70.90;;;;;;5006760;28;20046;-81
2023/03/22 01:27:36;;;;;;;2.90;2.70;;;17.20;71.00;;;;;;5003057;28;20045;-82
2023/03/22 01:30:02;;;;;;;3.10;2.80;;;17.20;70.90;;;;;;5005394;28;20446;-80
2023/03/22 01:32:28;;;;;;;3.15;2.72;;;17.20;71.00;;;;;;5006290;28;20076;-82
2023/03/22 01:34:53;;;;;;;3.13;2.83;;;17.20;70.90;;;;;;5005243;28;20503;-82
2023/03/22 01:37:20;;;;;;;2.80;2.60;;;17.20;70.90;;;;;;5004642;28;20049;-81
2023/03/22 01:39:46;;;;;;;2.83;2.63;;;17.20;71.00;;;;;;5007491;28;20537;-82
2023/03/22 01:42:14;;;;;;;3.05;2.75;;;17.20;71.00;;;;;;5006235;28;20062;-81
2023/03/22 01:44:42;;;;;;;2.60;2.40;;;17.20;70.90;;;;;;5008367;28;20044;-81
2023/03/22 01:47:09;;;;;;;3.00;2.80;;;17.20;71.00;;;;;;5006251;28;20037;-81
2023/03/22 01:49:35;;;;;;;3.08;2.78;;;17.20;71.00;;;;;;5002301;28;20052;-82
2023/03/22 01:52:12;;;;;;;2.92;2.70;;;17.20;71.00;;;;;;4990194;28;20038;-82
2023/03/22 01:54:42;;;;;;;2.83;2.63;;;17.20;71.00;;;;;;5002960;28;20044;-82
2023/03/22 01:57:08;;;;;;;3.60;2.60;;;17.20;71.00;;;;;;5004874;28;20033;-79
2023/03/22 01:59:34;;;;;;;2.85;2.65;;;17.20;71.10;;;;;;5009740;28;20045;-82
2023/03/22 02:02:01;;;;;;;3.05;2.85;;;17.20;71.00;;;;;;5008460;28;20486;-82
2023/03/22 02:04:32;;;;;;;2.88;2.67;;;17.20;71.00;;;;;;5005567;28;20100;-81
2023/03/22 02:07:02;;;;;;;2.80;2.60;;;17.10;71.10;;;;;;5001941;28;20179;-82
2023/03/22 02:09:29;;;;;;;2.78;2.45;;;17.10;71.10;;;;;;5000346;28;20158;-82
2023/03/22 02:12:02;;;;;;;3.03;2.83;;;17.10;71.10;;;;;;5021607;28;20787;-82
2023/03/22 02:14:46;;;;;;;2.25;2.05;;;17.20;71.10;;;;;;5002634;28;20514;-82
2023/03/22 02:17:19;;;;;;;2.90;2.70;;;17.10;71.00;;;;;;5004322;28;20519;-82
2023/03/22 02:20:06;;;;;;;3.10;2.90;;;17.10;71.00;;;;;;5005468;28;20038;-82
2023/03/22 02:22:51;;;;;;;2.70;2.50;;;17.10;71.10;;;;;;5004614;28;20038;-82
2023/03/22 02:25:35;;;;;;;2.67;2.50;;;17.10;71.10;;;;;;5017658;28;20034;-82
2023/03/22 02:28:09;;;;;;;2.65;2.45;;;17.10;71.10;;;;;;5004850;28;20044;-82
2023/03/22 02:30:44;;;;;;;;;;;17.10;71.10;;;;;;5001315;28;20151;-82
2023/03/22 02:33:19;;;;;;;2.47;2.28;;;17.10;71.10;;;;;;5007386;28;19925;-82
2023/03/22 02:35:50;;;;;;;2.42;2.15;;;17.10;71.10;;;;;;5004363;28;20478;-83
2023/03/22 02:38:27;;;;;;;2.50;2.30;;;17.10;71.10;;;;;;5006312;28;20045;-82
2023/03/22 02:40:55;;;;;;;2.67;2.47;;;17.10;71.10;;;;;;5005088;28;20125;-82
2023/03/22 02:43:37;;;;;;;2.38;2.28;;;17.10;71.10;;;;;;5003214;28;20042;-82
2023/03/22 02:46:05;;;;;;;2.35;2.00;;;17.10;71.10;;;;;;5005748;28;20045;-82
2023/03/22 02:48:51;;;;;;;1.95;1.80;;;17.10;71.10;;;;;;5005355;28;20049;-82
2023/03/22 02:51:22;;;;;;;2.08;1.98;;;17.10;71.10;;;;;;5000608;28;20096;-81
2023/03/22 02:53:56;;;;;;;2.20;2.00;;;17.10;71.00;;;;;;4991802;28;20052;-82
2023/03/22 02:56:30;;;;;;;2.38;2.17;;;17.10;71.10;;;;;;5005540;28;20076;-82
2023/03/22 02:58:58;;;;;;;2.25;2.13;;;17.10;71.90;;;;;;4986174;28;20546;-82
2023/03/22 03:01:28;;;;;;;2.20;2.10;;;17.10;71.10;;;;;;4984159;28;20066;-81
2023/03/22 03:03:58;;;;;;;2.03;1.75;;;17.10;71.10;;;;;;5006428;28;20044;-81
2023/03/22 03:06:25;;;;;;;1.70;1.60;;;17.10;71.10;;;;;;5002300;28;20125;-81
2023/03/22 03:08:52;;;;;;;1.90;1.80;;;17.10;71.10;;;;;;4989957;28;20050;-82
2023/03/22 03:11:18;;;;;;;2.17;2.00;;;17.10;71.90;;;;;;4986250;28;20418;-81
2023/03/22 03:13:46;;;;;;;2.28;2.08;;;17.10;71.10;;;;;;4988470;28;20578;-82
2023/03/22 03:16:16;;;;;;;2.10;1.90;;;17.10;71.10;;;;;;5003459;28;20046;-82
2023/03/22 03:18:49;;;;;;;2.50;2.40;;;17.10;71.10;;;;;;4971546;28;20101;-81
2023/03/22 03:21:19;;;;;;;1.60;1.50;;;17.10;71.10;;;;;;5008033;28;20559;-80
2023/03/22 03:24:06;;;;;;;1.88;1.77;;;17.10;71.10;;;;;;5005145;28;20046;-81
2023/03/22 03:26:51;;;;;;;2.20;2.00;;;17.10;71.10;;;;;;5007999;28;20080;-81
2023/03/22 03:29:44;;;;;;;2.38;2.17;;;17.10;71.20;;;;;;5007008;28;20065;-81
2023/03/22 03:32:18;;;;;;;2.28;2.08;;;17.10;71.10;;;;;;4996517;28;20046;-80
2023/03/22 03:34:50;;;;;;;1.95;1.70;;;17.00;71.10;;;;;;5007143;28;20046;-81
2023/03/22 03:37:20;;;;;;;1.70;1.60;;;17.10;71.10;;;;;;5005104;28;20692;-81
2023/03/22 03:40:16;;;;;;;1.90;1.80;;;17.10;71.10;;;;;;5008120;28;20122;-82
2023/03/22 03:42:44;;;;;;;1.80;1.65;;;17.10;71.10;;;;;;5005046;28;20046;-81
2023/03/22 03:45:10;;;;;;;1.90;1.80;;;17.10;71.10;;;;;;4975980;28;20130;-80
2023/03/22 03:47:36;;;;;;;1.67;1.58;;;17.10;71.10;;;;;;5007038;28;20125;-81
2023/03/22 03:50:05;;;;;;;1.80;1.70;;;17.10;71.20;;;;;;5007848;28;20041;-81
2023/03/22 03:52:30;;;;;;;1.70;1.60;;;17.10;71.10;;;;;;4990566;28;20057;-81
2023/03/22 03:54:56;;;;;;;1.50;1.40;;;17.00;71.00;;;;;;5008581;28;20041;-81
2023/03/22 03:57:22;;;;;;;1.77;1.67;;;17.00;71.00;;;;;;5003175;28;20054;-81
2023/03/22 03:59:48;;;;;;;1.50;1.40;;;17.00;71.00;;;;;;5005512;28;20052;-82
2023/03/22 04:02:13;;;;;;;1.50;1.40;;;17.00;71.00;;;;;;5007095;28;20037;-81
2023/03/22 04:04:39;;;;;;;1.42;1.27;;;17.00;71.00;;;;;;5008114;28;20530;-82
2023/03/22 04:07:04;;;;;;;1.52;1.38;;;17.00;71.00;;;;;;5009872;28;20099;-81
2023/03/22 04:09:32;;;;;;;1.70;1.60;;;17.00;71.00;;;;;;5008016;28;20042;-80
2023/03/22 04:11:58;;;;;;;1.60;1.50;;;17.00;71.00;;;;;;5007939;28;20105;-81
2023/03/22 04:14:24;;;;;;;1.52;1.38;;;17.00;71.00;;;;;;5008198;28;20137;-81
2023/03/22 04:16:50;;;;;;;2.70;1.73;;;17.00;71.00;;;;;;5009120;28;20026;-81
2023/03/22 04:19:15;;;;;;;1.35;1.23;;;17.00;71.10;;;;;;5007930;28;20590;-81
2023/03/22 04:21:41;;;;;;;1.70;1.60;;;17.00;71.10;;;;;;5007295;28;20054;-81
2023/03/22 04:24:07;;;;;;;1.70;1.60;;;17.00;71.00;;;;;;5008095;28;20046;-80
2023/03/22 04:26:32;;;;;;;1.40;1.30;;;17.00;71.00;;;;;;5008139;28;20058;-81
2023/03/22 04:28:58;;;;;;;1.30;1.23;;;17.00;71.00;;;;;;5008501;28;20494;-80
2023/03/22 04:31:24;;;;;;;1.58;1.40;;;17.00;71.00;;;;;;5007797;28;20068;-80
2023/03/22 04:33:53;;;;;;;1.25;1.15;;;17.00;71.00;;;;;;5005064;28;20125;-81
2023/03/22 04:36:20;;;;;;;1.13;1.02;;;17.00;71.00;;;;;;5006140;28;20069;-80
2023/03/22 04:38:45;;;;;;;1.95;1.67;;;17.00;71.00;;;;;;5007506;28;20550;-81
2023/03/22 04:41:11;;;;;;;1.13;1.02;;;17.00;70.90;;;;;;5008429;28;20049;-81
2023/03/22 04:43:38;;;;;;;1.63;1.30;;;17.00;70.90;;;;;;5006796;28;20459;-81
2023/03/22 04:46:05;;;;;;;1.35;1.20;;;17.00;70.90;;;;;;5008426;28;20076;-80
2023/03/22 04:48:31;;;;;;;1.55;1.45;;;17.00;70.90;;;;;;5002701;28;20054;-80
2023/03/22 04:50:57;;;;;;;1.42;1.25;;;17.00;70.90;;;;;;5007258;28;20041;-80
2023/03/22 04:53:26;;;;;;;1.00;0.95;;;17.00;71.00;;;;;;5009051;28;20049;-80
2023/03/22 04:55:58;;;;;;;1.02;1.02;;;17.00;70.90;;;;;;5006626;28;20085;-80
2023/03/22 04:58:24;;;;;;;1.20;1.10;;;17.00;70.90;;;;;;5007691;28;20466;-80
2023/03/22 05:00:54;;;;;;;1.45;1.20;;;17.00;70.90;;;;;;4990638;28;20053;-81
2023/03/22 05:03:20;;;;;;;1.30;1.20;;;17.00;70.90;;;;;;4988986;28;20478;-81
2023/03/22 05:06:05;;;;;;;1.30;1.20;;;17.00;70.90;;;;;;5008454;28;20044;-81
2023/03/22 05:08:31;;;;;;;2.08;0.95;;;17.00;71.00;;;;;;5007984;28;20038;-81
2023/03/22 05:10:58;;;;;;;1.10;1.00;;;17.00;70.90;;;;;;5008409;28;20408;-81
2023/03/22 05:13:24;;;;;;;1.55;1.13;;;17.00;70.90;;;;;;5005405;28;20137;-80
2023/03/22 05:15:50;;;;;;;1.10;1.00;;;17.00;70.90;;;;;;5006161;28;20049;-80
2023/03/22 05:18:17;;;;;;;0.88;0.88;;;17.00;70.90;;;;;;5005435;28;20048;-83
2023/03/22 05:20:42;;;;;;;1.15;1.05;;;17.00;70.70;;;;;;5000114;28;20407;-83
2023/03/22 05:23:09;;;;;;;1.10;1.00;;;17.10;70.70;;;;;;5006727;28;20042;-84
2023/03/22 05:25:35;;;;;;;1.02;0.90;;;17.00;70.80;;;;;;5008417;28;20587;-84
2023/03/22 05:28:01;;;;;;;1.33;0.98;;;17.00;70.80;;;;;;5006924;28;20050;-83
2023/03/22 05:30:28;;;;;;;1.05;0.98;;;17.00;70.80;;;;;;5004177;28;20510;-83
2023/03/22 05:33:02;;;;;;;1.25;1.15;;;17.00;70.90;;;;;;5007493;28;20419;-83
2023/03/22 05:35:30;;;;;;;0.90;0.80;;;17.00;70.90;;;;;;5008320;28;20049;-83
2023/03/22 05:37:56;;;;;;;1.23;1.13;;;17.00;71.00;;;;;;5009574;28;20049;-82
2023/03/22 05:40:23;;;;;;;1.27;1.17;;;17.00;71.00;;;;;;5009787;28;20042;-81
2023/03/22 05:42:48;;;;;;;0.93;0.80;;;17.00;70.90;;;;;;4994470;28;20054;-83
2023/03/22 05:45:14;;;;;;;1.15;1.05;;;17.00;70.90;;;;;;5010444;28;20046;-83
2023/03/22 05:47:40;;;;;;;1.25;1.15;;;17.00;71.00;;;;;;5007568;28;20049;-83
2023/03/22 05:50:07;;;;;;;1.13;1.02;;;17.00;71.00;;;;;;5015337;28;20049;-83
2023/03/22 05:52:32;;;;;;;2.13;1.20;;;17.00;71.00;;;;;;5007079;28;20107;-84
2023/03/22 05:54:58;;;;;;;1.00;0.95;;;17.00;71.00;;;;;;5012486;28;20045;-83
2023/03/22 05:57:24;;;;;;;1.40;1.30;;;17.00;70.90;;;;;;5011211;28;20038;-83
2023/03/22 05:59:52;;;;;;;1.45;1.35;;;17.00;71.00;;;;;;5008956;28;21223;-84
2023/03/22 06:02:18;;;;;;;1.08;0.98;;;17.00;71.00;;;;;;5010466;28;20042;-84
2023/03/22 06:04:45;;;;;;;0.93;0.85;;;17.00;71.00;;;;;;5006620;28;20053;-83
2023/03/22 06:07:11;;;;;;;0.90;0.70;;;17.00;71.00;;;;;;5003579;28;20410;-80
2023/03/22 06:09:37;;;;;;;0.88;0.88;;;17.00;70.80;;;;;;5003579;28;20503;-78
2023/03/22 06:12:02;;;;;;;1.10;1.00;;;17.00;71.10;;;;;;5005002;28;20126;-79
2023/03/22 06:14:28;;;;;;;1.30;1.20;;;17.00;70.90;;;;;;5003918;28;20469;-83
2023/03/22 06:16:54;;;;;;;1.60;1.13;;;17.00;70.70;;;;;;4987360;28;20042;-78
2023/03/22 06:19:20;;;;;;;2.22;1.10;;;17.00;71.20;;;;;;5019124;28;20092;-79
2023/03/22 06:21:45;;;;;;;2.17;1.00;;;17.00;71.30;;;;;;5005424;28;20376;-79
2023/03/22 06:24:11;;;;;;;2.55;0.75;;;17.00;71.10;;;;;;5003683;28;20041;-78
2023/03/22 06:26:36;;;;;;;1.65;0.90;;;17.10;71.20;;;;;;5002132;28;20042;-78
2023/03/22 06:29:02;;;;;;;1.60;1.45;;;17.10;71.10;;;;;;5004161;28;20179;-78
2023/03/22 06:31:28;;;;;;;1.10;1.00;;;17.00;71.20;;;;;;5005536;28;20045;-78
2023/03/22 06:33:54;;;;;;;3.25;0.98;;;17.10;71.20;;;;;;5004255;28;20049;-78
2023/03/22 06:36:19;;;;;;;1.20;1.10;;;17.10;71.20;;;;;;5015011;28;20053;-79
2023/03/22 06:38:45;;;;;;;1.17;1.08;;;17.00;71.70;;;;;;4992073;28;20411;-79
2023/03/22 06:41:11;;;;;;;1.00;0.90;;;17.00;71.70;;;;;;5000779;28;20042;-80
2023/03/22 06:43:37;;;;;;;2.05;1.10;;;17.00;71.80;;;;;;5002378;28;20034;-81
2023/03/22 06:46:02;;;;;;;0.90;0.85;;;17.00;71.90;;;;;;5018038;28;20050;-80
2023/03/22 06:48:28;;;;;;;2.92;1.00;;;17.00;71.90;;;;;;5002680;28;20042;-84
2023/03/22 06:50:53;;;;;;;1.05;0.95;;;17.00;71.80;;;;;;5019694;28;20071;-84
2023/03/22 06:53:19;;;;;;;2.95;1.25;;;17.00;71.70;;;;;;5004088;28;20744;-82
2023/03/22 06:55:44;;;;;;;1.95;1.10;;;17.00;71.50;;;;;;5017549;28;20569;-81
2023/03/22 06:58:10;;;;;;;1.25;1.00;;;17.00;71.60;;;;;;5014418;28;20136;-84
2023/03/22 07:00:37;;;;;;;2.00;1.08;;;17.00;71.60;;;;;;5029444;28;20045;-80
2023/03/22 07:03:03;;;;;;;1.52;0.85;;;17.10;71.70;;;;;;5016934;28;20046;-84
2023/03/22 07:05:28;;;;;;;1.00;0.90;;;17.10;71.60;;;;;;5007956;28;20046;-81
2023/03/22 07:07:54;;;;;;;2.13;1.00;;;17.10;71.50;;;;;;5005372;28;20042;-84
2023/03/22 07:10:20;;;;;;;1.48;1.00;;;17.10;71.50;;;;;;5013709;28;20042;-81
2023/03/22 07:12:49;;;;;;;1.63;1.20;;;17.10;71.50;;;;;;4441677;28;10000981;-82
2023/03/22 07:15:16;;;;;;;1.85;0.70;;;17.10;71.60;;;;;;4987651;28;20271;-83
2023/03/22 07:17:41;;;;;;;2.03;1.45;;;17.10;71.50;;;;;;5004403;28;20445;-83
2023/03/22 07:20:08;;;;;;;1.90;1.10;;;17.10;71.80;;;;;;5006383;28;20125;-83
2023/03/22 07:22:33;;;;;;;1.50;1.25;;;17.10;71.90;;;;;;5009408;28;20485;-83
2023/03/22 07:24:59;;;;;;;1.38;1.08;;;17.10;71.50;;;;;;5011826;28;20046;-84
2023/03/22 07:27:24;;;;;;;1.13;0.93;;;17.10;71.60;;;;;;4997689;28;20038;-82
2023/03/22 07:29:50;;;;;;;2.25;0.82;;;17.10;71.40;;;;;;5009571;28;20045;-86
2023/03/22 07:32:16;;;;;;;1.10;1.00;;;17.10;71.30;;;;;;4995880;28;20437;-84
2023/03/22 07:34:41;;;;;;;2.42;1.10;;;17.10;71.20;;;;;;4990128;28;21182;-82
2023/03/22 07:37:07;;;;;;;2.75;1.20;;;17.10;71.70;;;;;;4995029;28;20041;-81
2023/03/22 07:39:33;;;;;;;1.15;0.90;;;17.10;71.30;;;;;;5004976;28;20380;-82
2023/03/22 07:41:58;;;;;;;0.80;0.80;;;17.10;71.30;;;;;;4989580;28;20068;-83
2023/03/22 07:44:24;;;;;;;2.33;0.95;;;17.10;71.60;;;;;;4995331;28;20092;-83
2023/03/22 07:46:51;;;;;;;1.77;0.93;;;17.10;71.20;;;;;;5006658;28;20113;-82
2023/03/22 07:49:17;;;;;;;0.85;0.85;;;17.10;71.20;;;;;;5007903;28;20044;-83
2023/03/22 07:51:42;;;;;;;0.82;0.82;;;17.10;71.20;;;;;;5000830;28;20042;-82
2023/03/22 07:54:08;;;;;;;0.82;0.70;;;17.10;71.30;;;;;;5004781;28;20058;-83
2023/03/22 07:56:34;;;;;;;0.80;0.60;;;17.10;71.30;;;;;;5002356;28;20046;-87
2023/03/22 07:58:59;;;;;;;1.88;0.75;;;17.10;71.30;;;;;;5020931;28;20096;-83
2023/03/22 08:01:25;;;;;;;1.02;0.85;;;17.10;72.00;;;;;;5005264;28;20135;-83
2023/03/22 08:03:51;;;;;;;1.30;0.95;;;17.10;71.60;;;;;;5010203;28;20609;-83
2023/03/22 08:06:18;;;;;;;1.02;0.93;;;17.10;71.50;;;;;;5007551;28;20385;-83
2023/03/22 08:08:44;;;;;;;0.70;0.70;;;17.10;71.50;;;;;;5023863;28;20049;-83
2023/03/22 08:11:11;;;;;;;0.80;0.80;;;17.10;71.50;;;;;;5010760;28;20400;-83
2023/03/22 08:13:38;;;;;;;0.90;0.90;;;17.10;71.50;;;;;;5005686;28;20085;-82
2023/03/22 08:16:04;;;;;;;3.40;0.73;;;17.10;71.50;;;;;;5005975;28;20049;-83
2023/03/22 08:18:30;;;;;;;0.68;0.68;;;17.10;71.50;;;;;;5007940;28;20038;-82
2023/03/22 08:20:56;;;;;;;0.88;0.80;;;17.10;71.40;;;;;;5009392;28;20100;-83
2023/03/22 08:23:22;;;;;;;1.05;0.70;;;17.10;71.30;;;;;;5005826;28;20046;-83
2023/03/22 08:25:48;;;;;;;0.68;0.65;;;17.10;71.20;;;;;;5019338;28;20101;-83
2023/03/22 08:28:14;;;;;;;0.70;0.70;;;17.00;71.10;;;;;;5008652;28;20046;-83
2023/03/22 08:30:41;;;;;;;1.30;1.20;;;17.10;71.10;;;;;;5006472;28;20531;-83
2023/03/22 08:33:07;;;;;;;0.98;0.93;;;17.10;71.00;;;;;;5008718;28;20073;-83
2023/03/22 08:35:32;;;;;;;1.23;0.90;;;17.10;71.00;;;;;;5008109;28;20073;-81
2023/03/22 08:37:58;;;;;;;0.95;0.85;;;17.10;71.70;;;;;;5009522;28;20037;-83
2023/03/22 08:40:24;;;;;;;0.70;0.70;;;17.10;70.90;;;;;;5009010;28;20042;-83
2023/03/22 08:42:49;;;;;;;0.95;0.80;;;17.10;71.00;;;;;;5008687;28;20065;-83
2023/03/22 08:45:15;;;;;;;0.77;0.55;;;17.10;70.90;;;;;;5018180;28;20069;-80
2023/03/22 08:47:41;;;;;;;0.73;0.50;;;17.10;70.80;;;;;;5006815;28;20054;-83
2023/03/22 08:50:08;;;;;;;0.60;0.60;;;17.10;70.80;;;;;;4993203;28;20042;-83
2023/03/22 08:52:33;;;;;;;0.80;0.70;;;17.10;70.80;;;;;;5008782;28;20508;-82
2023/03/22 08:54:59;;;;;;;0.80;0.80;;;17.10;70.90;;;;;;5005278;28;20124;-83
2023/03/22 08:57:26;;;;;;;0.93;0.70;;;17.10;70.90;;;;;;5005384;28;20522;-83
2023/03/22 08:59:52;;;;;;;0.80;0.50;;;17.10;70.90;;;;;;5007440;28;20102;-83
2023/03/22 09:02:18;;;;;;;1.23;0.85;;;17.10;70.90;;;;;;5015155;28;20404;-83
2023/03/22 09:04:44;;;;;;;0.98;0.77;;;17.10;71.20;;;;;;5023306;28;20586;-83
2023/03/22 09:07:09;;;;;;;0.82;0.65;;;17.10;70.70;;;;;;5008476;28;20038;-83
2023/03/22 09:09:35;;;;;;;1.08;0.73;;;17.10;70.70;;;;;;4999796;28;20038;-83
2023/03/22 09:12:01;;;;;;;0.70;0.70;;;17.00;70.70;;;;;;5006386;28;20048;-82
2023/03/22 09:14:26;;;;;;;1.52;0.63;;;17.10;70.60;;;;;;5008943;28;20042;-83
2023/03/22 09:16:52;;;;;;;0.50;0.50;;;17.10;70.50;;;;;;5007828;28;20188;-83
2023/03/22 09:19:17;;;;;;;0.65;0.65;;;17.10;70.40;;;;;;5007441;28;20046;-83
2023/03/22 09:21:43;;;;;;;0.90;0.68;;;17.20;70.40;;;;;;5002036;28;20472;-83
2023/03/22 09:24:08;;;;;;;1.00;0.77;;;17.20;70.20;;;;;;5009070;28;20045;-83
2023/03/22 09:26:35;;;;;;;0.80;0.80;;;17.20;71.10;;;;;;5006488;28;20056;-83
2023/03/22 09:29:01;;;;;;;1.02;0.70;;;17.20;70.40;;;;;;4975873;28;20396;-83
2023/03/22 09:31:27;;;;;;;0.65;0.60;;;17.20;70.40;;;;;;4991194;28;20037;-83
2023/03/22 09:33:52;;;;;;;0.50;0.50;;;17.20;70.30;;;;;;5006488;28;20514;-83
2023/03/22 09:36:18;;;;;;;1.45;0.60;;;17.20;70.20;;;;;;5005681;28;20495;-83
2023/03/22 09:38:45;;;;;;;0.40;0.40;;;17.20;70.20;;;;;;5004927;28;20041;-83
2023/03/22 09:41:23;;;;;;;0.85;0.75;;;17.20;70.20;;;;;;4990703;28;20041;-83
2023/03/22 09:43:54;;;;;;;0.95;0.60;;;17.20;70.30;;;;;;5005837;28;20120;-83
2023/03/22 09:46:26;;;;;;;0.60;0.60;;;17.20;70.20;;;;;;4992710;28;20075;-81
2023/03/22 09:48:51;;;;;;;1.13;0.55;;;17.20;70.10;;;;;;5004463;28;20844;-80
2023/03/22 09:51:29;;;;;;;0.85;0.60;;;17.10;70.20;;;;;;4999529;28;20072;-79
2023/03/22 09:53:55;;;;;;;1.00;0.77;;;17.10;70.10;;;;;;5003716;28;20083;-78
2023/03/22 09:56:25;;;;;;;0.45;0.40;;;17.10;70.30;;;;;;4984291;28;20042;-80
2023/03/22 09:58:55;;;;;;;0.43;0.43;;;17.20;70.30;;;;;;4982325;28;20046;-79
2023/03/22 10:01:52;;;;;;;1.45;0.68;;;17.20;70.30;;;;;;4988122;28;20084;-80
2023/03/22 10:04:32;;;;;;;0.50;0.50;;;17.10;70.30;;;;;;4979106;28;20046;-80
2023/03/22 10:07:06;;;;;;;0.70;0.52;;;17.10;70.30;;;;;;5004505;28;20036;-79
2023/03/22 10:09:44;;;;;;;0.50;0.50;;;17.10;70.40;;;;;;4983148;28;20127;-79
2023/03/22 10:12:35;;;;;;;0.68;0.52;;;17.20;70.50;;;;;;4999986;28;20038;-79
2023/03/22 10:15:14;;;;;;;0.90;0.57;;;17.10;70.30;;;;;;5001912;28;20132;-79
2023/03/22 10:17:42;;;;;;;0.40;0.40;;;17.10;71.10;;;;;;5008022;28;20069;-79
2023/03/22 10:20:23;;;;;;;1.05;0.90;;;17.10;70.40;;;;;;5002220;28;20546;-80
2023/03/22 10:22:48;;;;;;;0.73;0.40;;;17.10;70.40;;;;;;5003027;28;20038;-81
2023/03/22 10:25:16;;;;;;;0.40;0.35;;;17.20;70.40;;;;;;5004797;28;20441;-80
2023/03/22 10:27:41;;;;;;;0.55;0.50;;;17.20;70.20;;;;;;5001571;28;20049;-79
2023/03/22 10:30:15;;;;;;;1.05;0.60;;;17.20;70.30;;;;;;4969191;28;20046;-78
2023/03/22 10:33:00;;;;;;;4.47;1.33;;;17.20;70.20;;;;;;5017852;28;20485;-79
2023/03/22 10:35:26;;;;;;;0.77;0.57;;;17.20;70.60;;;;;;4999577;28;20057;-79
2023/03/22 10:37:52;;;;;;;0.70;0.60;;;17.20;70.40;;;;;;4983243;28;20034;-80
2023/03/22 10:40:20;;;;;;;0.77;0.73;;;17.20;70.30;;;;;;5003196;28;20511;-79
2023/03/22 10:42:59;;;;;;;0.95;0.73;;;17.20;70.30;;;;;;5001323;28;20487;-79
2023/03/22 10:45:24;;;;;;;0.60;0.55;;;17.20;70.20;;;;;;4987381;28;20148;-79
2023/03/22 10:47:58;;;;;;;0.65;0.60;;;17.20;70.40;;;;;;5004032;28;20119;-80
2023/03/22 10:50:27;;;;;;;0.50;0.50;;;17.20;70.50;;;;;;5001964;28;20073;-80
2023/03/22 10:53:25;;;;;;;0.60;0.60;;;17.20;70.20;;;;;;5004812;28;20046;-79
2023/03/22 10:55:50;;;;;;;7.32;0.60;;;17.20;70.50;;;;;;5001943;28;20042;-80
2023/03/22 10:58:17;;;;;;;0.50;0.50;;;17.20;70.30;;;;;;5000109;28;20067;-80
2023/03/22 11:00:53;;;;;;;1.58;0.50;;;17.20;70.30;;;;;;4980667;28;20035;-81
2023/03/22 11:03:29;;;;;;;1.95;0.60;;;17.20;70.30;;;;;;5000810;28;20177;-80
2023/03/22 11:06:02;;;;;;;0.70;0.70;;;17.20;70.40;;;;;;5001649;28;20030;-80
2023/03/22 11:08:27;;;;;;;0.60;0.50;;;17.20;70.40;;;;;;4657582;28;10000370;-79
2023/03/22 11:10:57;;;;;;;0.50;0.50;;;17.20;70.50;;;;;;5006113;28;20038;-79
2023/03/22 11:13:23;;;;;;;0.73;0.60;;;17.20;70.40;;;;;;4997449;28;20046;-77
2023/03/22 11:15:54;;;;;;;1.27;0.77;;;17.20;70.70;;;;;;4638256;28;10000817;-79
2023/03/22 11:18:20;;;;;;;0.85;0.60;;;17.20;70.70;;;;;;4995670;28;20056;-80
2023/03/22 11:21:20;;;;;;;1.42;1.00;;;17.20;70.60;;;;;;5004539;28;20109;-80
2023/03/22 11:23:55;;;;;;;0.98;0.70;;;17.20;71.90;;;;;;4996384;28;20054;-82
2023/03/22 11:26:29;;;;;;;0.80;0.60;;;17.20;71.50;;;;;;5003426;28;20077;-79
2023/03/22 11:29:09;;;;;;;1.05;1.00;;;17.20;71.60;;;;;;5003417;28;20070;-80
2023/03/22 11:32:04;;;;;;;0.95;0.73;;;17.30;71.80;;;;;;5000828;28;20519;-80
2023/03/22 11:34:30;;;;;;;3.30;1.13;;;17.30;71.30;;;;;;5008668;28;20065;-78
2023/03/22 11:36:59;;;;;;;2.20;1.10;;;17.20;72.10;;;;;;5002812;28;20510;-78
2023/03/22 11:39:28;;;;;;;1.90;1.67;;;17.20;71.90;;;;;;4998882;28;20550;-77
2023/03/22 11:42:00;;;;;;;1.98;1.27;;;17.30;72.00;;;;;;5006732;28;20045;-78
2023/03/22 11:44:25;;;;;;;7.15;0.80;;;17.30;70.90;;;;;;5004875;28;20057;-78
2023/03/22 11:46:56;;;;;;;0.80;0.70;;;17.30;71.30;;;;;;4991464;28;20057;-79
2023/03/22 11:49:23;;;;;;;0.95;0.70;;;17.30;71.40;;;;;;5010313;28;20041;-80
2023/03/22 11:51:49;;;;;;;0.90;0.60;;;17.30;71.20;;;;;;4994198;28;20581;-80
2023/03/22 11:54:28;;;;;;;0.70;0.70;;;17.30;71.30;;;;;;4988757;28;20050;-79
2023/03/22 11:56:57;;;;;;;0.50;0.30;;;17.30;71.30;;;;;;4989984;28;20511;-79
2023/03/22 11:59:24;;;;;;;0.80;0.40;;;17.30;70.80;;;;;;4992123;28;20768;-78
2023/03/22 12:02:05;;;;;;;0.98;0.52;;;17.30;70.90;;;;;;4988106;28;20042;-80
2023/03/22 12:04:34;;;;;;;1.00;0.57;;;17.30;70.90;;;;;;5003934;28;20076;-80
2023/03/22 12:07:02;;;;;;;0.52;0.52;;;17.30;70.80;;;;;;5005596;28;20049;-77
2023/03/22 12:09:45;;;;;;;0.40;0.40;;;17.30;70.90;;;;;;5001003;28;20072;-78
2023/03/22 12:12:23;;;;;;;0.57;0.57;;;17.30;71.10;;;;;;5013052;28;20459;-78
2023/03/22 12:15:01;;;;;;;0.70;0.50;;;17.30;71.30;;;;;;4990724;28;20042;-79
2023/03/22 12:17:36;;;;;;;1.23;0.90;;;17.30;71.20;;;;;;5009435;28;20038;-82
2023/03/22 12:20:29;;;;;;;0.52;0.47;;;17.30;71.30;;;;;;5006020;28;20407;-77
2023/03/22 12:22:55;;;;;;;0.98;0.40;;;17.30;71.20;;;;;;4657085;28;10000548;-84
2023/03/22 12:25:24;;;;;;;0.60;0.60;;;17.30;71.30;;;;;;5002395;28;20057;-80
2023/03/22 12:27:54;;;;;;;1.38;0.50;;;17.30;71.80;;;;;;5002724;28;20049;-83
2023/03/22 12:30:28;;;;;;;0.82;0.30;;;17.30;72.60;;;;;;5003398;28;20737;-77
2023/03/22 12:33:02;;;;;;;0.63;0.50;;;17.30;73.10;;;;;;5017532;28;20046;-79
2023/03/22 12:35:33;;;;;;;1.13;0.43;;;17.30;72.70;;;;;;5001857;28;20534;-77
2023/03/22 12:38:10;;;;;;;0.70;0.68;;;17.40;72.60;;;;;;5003494;28;20495;-82
2023/03/22 12:40:39;;;;;;;0.80;0.77;;;17.30;73.40;;;;;;5003937;28;20049;-83
2023/03/22 12:43:15;;;;;;;1.45;0.50;;;17.40;73.70;;;;;;5003062;28;20089;-81
2023/03/22 12:45:43;;;;;;;0.68;0.50;;;17.40;73.70;;;;;;5002432;28;20049;-79
2023/03/22 12:48:15;;;;;;;2.08;0.50;;;17.40;73.30;;;;;;5004286;28;20507;-81
2023/03/22 12:50:44;;;;;;;1.73;0.70;;;17.40;73.40;;;;;;5002603;28;20046;-81
2023/03/22 12:53:12;;;;;;;1.13;0.60;;;17.40;73.10;;;;;;5000021;28;20065;-79
2023/03/22 12:55:38;;;;;;;1.02;0.52;;;17.40;72.60;;;;;;5002349;28;20451;-81